sensor_id;sensor_type;location;lat;lon;timestamp;pressure;altitude;pressure_sealevel;temperature;humidity
76337;BME280;65157;50.082;18.178;2023-07-13T00:00:49;98852.86;;;20.71;76.22
76337;BME280;65157;50.082;18.178;2023-07-13T00:03:35;98845.35;;;20.70;76.38
76337;BME280;65157;50.082;18.178;2023-07-13T00:06:02;98831.30;;;20.73;76.51
76337;BME280;65157;50.082;18.178;2023-07-13T00:08:31;98811.13;;;20.74;76.73
76337;BME280;65157;50.082;18.178;2023-07-13T00:10:57;98812.15;;;20.68;76.66
76337;BME280;65157;50.082;18.178;2023-07-13T00:13:24;98811.14;;;20.66;76.92
76337;BME280;65157;50.082;18.178;2023-07-13T00:15:50;98811.15;;;20.62;76.75
76337;BME280;65157;50.082;18.178;2023-07-13T00:18:16;98823.45;;;20.65;76.51
76337;BME280;65157;50.082;18.178;2023-07-13T00:20:43;98822.15;;;20.67;76.98
76337;BME280;65157;50.082;18.178;2023-07-13T00:23:09;98819.11;;;20.69;77.06
76337;BME280;65157;50.082;18.178;2023-07-13T00:25:36;98823.98;;;20.69;77.09
76337;BME280;65157;50.082;18.178;2023-07-13T00:28:03;98822.44;;;20.66;76.84
76337;BME280;65157;50.082;18.178;2023-07-13T00:30:29;98827.34;;;20.69;77.13
76337;BME280;65157;50.082;18.178;2023-07-13T00:32:56;98837.86;;;20.70;77.08
76337;BME280;65157;50.082;18.178;2023-07-13T00:35:23;98877.81;;;20.72;76.94
76337;BME280;65157;50.082;18.178;2023-07-13T00:37:49;98935.45;;;20.70;78.84
76337;BME280;65157;50.082;18.178;2023-07-13T00:40:16;98932.69;;;20.48;78.83
76337;BME280;65157;50.082;18.178;2023-07-13T00:42:42;98907.14;;;20.31;77.71
76337;BME280;65157;50.082;18.178;2023-07-13T00:47:39;98916.38;;;20.21;77.44
76337;BME280;65157;50.082;18.178;2023-07-13T00:50:11;98915.27;;;20.22;77.35
76337;BME280;65157;50.082;18.178;2023-07-13T00:52:40;98912.10;;;20.19;77.28
76337;BME280;65157;50.082;18.178;2023-07-13T00:55:08;98906.89;;;20.21;76.84
76337;BME280;65157;50.082;18.178;2023-07-13T00:57:36;98900.04;;;20.15;76.27
76337;BME280;65157;50.082;18.178;2023-07-13T01:00:05;98902.20;;;20.11;76.17
76337;BME280;65157;50.082;18.178;2023-07-13T01:02:33;98889.07;;;20.06;75.99
76337;BME280;65157;50.082;18.178;2023-07-13T01:05:01;98875.22;;;19.96;75.97
76337;BME280;65157;50.082;18.178;2023-07-13T01:07:29;98863.92;;;19.88;75.95
76337;BME280;65157;50.082;18.178;2023-07-13T01:09:56;98851.15;;;19.81;75.80
76337;BME280;65157;50.082;18.178;2023-07-13T01:12:22;98836.70;;;19.78;75.88
76337;BME280;65157;50.082;18.178;2023-07-13T01:14:56;98828.70;;;19.79;76.34
76337;BME280;65157;50.082;18.178;2023-07-13T01:17:22;98829.44;;;19.81;75.94
76337;BME280;65157;50.082;18.178;2023-07-13T01:19:48;98830.31;;;19.82;75.81
76337;BME280;65157;50.082;18.178;2023-07-13T01:22:18;98832.21;;;19.80;75.58
76337;BME280;65157;50.082;18.178;2023-07-13T01:24:47;98826.86;;;19.78;75.53
76337;BME280;65157;50.082;18.178;2023-07-13T01:27:16;98824.90;;;19.76;75.50
76337;BME280;65157;50.082;18.178;2023-07-13T01:29:44;98816.76;;;19.77;75.36
76337;BME280;65157;50.082;18.178;2023-07-13T01:32:15;98805.67;;;19.77;75.28
76337;BME280;65157;50.082;18.178;2023-07-13T01:34:42;98794.89;;;19.77;75.29
76337;BME280;65157;50.082;18.178;2023-07-13T01:37:10;98790.09;;;19.79;75.32
76337;BME280;65157;50.082;18.178;2023-07-13T01:39:37;98779.59;;;19.74;75.22
76337;BME280;65157;50.082;18.178;2023-07-13T01:42:04;98785.16;;;19.80;75.09
76337;BME280;65157;50.082;18.178;2023-07-13T01:44:48;98783.83;;;19.81;75.04
76337;BME280;65157;50.082;18.178;2023-07-13T01:47:15;98782.64;;;19.80;75.02
76337;BME280;65157;50.082;18.178;2023-07-13T01:49:42;98779.64;;;19.82;74.94
76337;BME280;65157;50.082;18.178;2023-07-13T01:52:08;98778.80;;;19.81;75.01
76337;BME280;65157;50.082;18.178;2023-07-13T01:54:35;98784.63;;;19.80;74.98
76337;BME280;65157;50.082;18.178;2023-07-13T01:57:01;98788.23;;;19.77;75.02
76337;BME280;65157;50.082;18.178;2023-07-13T01:59:28;98785.86;;;19.74;74.90
76337;BME280;65157;50.082;18.178;2023-07-13T02:01:54;98779.21;;;19.66;74.95
76337;BME280;65157;50.082;18.178;2023-07-13T02:04:21;98788.09;;;19.62;75.30
76337;BME280;65157;50.082;18.178;2023-07-13T02:06:47;98785.80;;;19.54;75.31
76337;BME280;65157;50.082;18.178;2023-07-13T02:09:13;98784.91;;;19.47;75.37
76337;BME280;65157;50.082;18.178;2023-07-13T02:11:40;98781.82;;;19.44;75.40
76337;BME280;65157;50.082;18.178;2023-07-13T02:14:07;98782.31;;;19.38;75.50
76337;BME280;65157;50.082;18.178;2023-07-13T02:16:34;98772.05;;;19.32;75.54
76337;BME280;65157;50.082;18.178;2023-07-13T02:19:02;98764.45;;;19.29;75.54
76337;BME280;65157;50.082;18.178;2023-07-13T02:21:29;98751.37;;;19.21;75.76
76337;BME280;65157;50.082;18.178;2023-07-13T02:23:56;98742.47;;;19.19;76.01
76337;BME280;65157;50.082;18.178;2023-07-13T02:26:22;98748.29;;;19.19;76.11
76337;BME280;65157;50.082;18.178;2023-07-13T02:28:49;98702.04;;;18.93;76.19
76337;BME280;65157;50.082;18.178;2023-07-13T02:31:16;98737.20;;;19.17;76.21
76337;BME280;65157;50.082;18.178;2023-07-13T02:33:42;98739.80;;;19.18;76.31
76337;BME280;65157;50.082;18.178;2023-07-13T02:36:13;98740.23;;;19.19;76.22
76337;BME280;65157;50.082;18.178;2023-07-13T02:38:39;98739.68;;;19.22;76.21
76337;BME280;65157;50.082;18.178;2023-07-13T02:41:06;98740.47;;;19.19;76.18
76337;BME280;65157;50.082;18.178;2023-07-13T02:43:33;98755.35;;;19.23;76.23
76337;BME280;65157;50.082;18.178;2023-07-13T02:46:00;98766.98;;;19.23;76.24
76337;BME280;65157;50.082;18.178;2023-07-13T02:48:26;98759.58;;;19.15;76.44
76337;BME280;65157;50.082;18.178;2023-07-13T02:50:53;98756.79;;;19.14;76.38
76337;BME280;65157;50.082;18.178;2023-07-13T02:53:19;98766.70;;;19.22;76.54
76337;BME280;65157;50.082;18.178;2023-07-13T02:55:46;98776.84;;;19.22;76.58
76337;BME280;65157;50.082;18.178;2023-07-13T02:58:13;98789.52;;;19.23;76.56
76337;BME280;65157;50.082;18.178;2023-07-13T03:00:39;98793.41;;;19.23;76.56
76337;BME280;65157;50.082;18.178;2023-07-13T03:03:06;98789.83;;;19.24;76.60
76337;BME280;65157;50.082;18.178;2023-07-13T03:05:33;98784.12;;;19.23;76.61
76337;BME280;65157;50.082;18.178;2023-07-13T03:07:59;98786.03;;;19.24;76.83
76337;BME280;65157;50.082;18.178;2023-07-13T03:10:26;98781.89;;;19.22;76.84
76337;BME280;65157;50.082;18.178;2023-07-13T03:12:52;98780.07;;;19.23;76.65
76337;BME280;65157;50.082;18.178;2023-07-13T03:15:19;98778.04;;;19.23;76.67
76337;BME280;65157;50.082;18.178;2023-07-13T03:17:45;98783.27;;;19.20;76.80
76337;BME280;65157;50.082;18.178;2023-07-13T03:20:12;98785.55;;;19.16;76.86
76337;BME280;65157;50.082;18.178;2023-07-13T03:22:38;98779.17;;;19.09;76.93
76337;BME280;65157;50.082;18.178;2023-07-13T03:25:05;98788.66;;;19.16;76.78
76337;BME280;65157;50.082;18.178;2023-07-13T03:27:31;98791.09;;;19.17;76.85
76337;BME280;65157;50.082;18.178;2023-07-13T03:29:59;98801.27;;;19.19;77.26
76337;BME280;65157;50.082;18.178;2023-07-13T03:32:26;98809.09;;;19.22;77.46
76337;BME280;65157;50.082;18.178;2023-07-13T03:34:53;98807.86;;;19.24;77.30
76337;BME280;65157;50.082;18.178;2023-07-13T03:37:19;98810.59;;;19.25;77.62
76337;BME280;65157;50.082;18.178;2023-07-13T03:39:46;98812.53;;;19.28;77.76
76337;BME280;65157;50.082;18.178;2023-07-13T03:42:12;98811.19;;;19.25;78.01
76337;BME280;65157;50.082;18.178;2023-07-13T03:44:39;98822.57;;;19.30;77.94
76337;BME280;65157;50.082;18.178;2023-07-13T03:47:07;98832.11;;;19.33;77.80
76337;BME280;65157;50.082;18.178;2023-07-13T03:49:33;98831.95;;;19.35;77.67
76337;BME280;65157;50.082;18.178;2023-07-13T03:51:59;98838.44;;;19.37;77.80
76337;BME280;65157;50.082;18.178;2023-07-13T03:54:27;98848.27;;;19.39;77.77
76337;BME280;65157;50.082;18.178;2023-07-13T03:56:53;98853.83;;;19.41;77.71
76337;BME280;65157;50.082;18.178;2023-07-13T03:59:19;98850.45;;;19.43;77.43
76337;BME280;65157;50.082;18.178;2023-07-13T04:01:46;98856.46;;;19.44;77.68
76337;BME280;65157;50.082;18.178;2023-07-13T04:04:12;98855.05;;;19.44;77.70
76337;BME280;65157;50.082;18.178;2023-07-13T04:06:39;98850.41;;;19.45;77.66
76337;BME280;65157;50.082;18.178;2023-07-13T04:09:05;98850.63;;;19.47;77.81
76337;BME280;65157;50.082;18.178;2023-07-13T04:11:32;98850.77;;;19.49;77.62
76337;BME280;65157;50.082;18.178;2023-07-13T04:14:00;98841.79;;;19.46;77.78
76337;BME280;65157;50.082;18.178;2023-07-13T04:16:26;98847.83;;;19.55;77.87
76337;BME280;65157;50.082;18.178;2023-07-13T04:18:54;98851.89;;;19.58;77.86
76337;BME280;65157;50.082;18.178;2023-07-13T04:21:22;98855.16;;;19.61;77.94
76337;BME280;65157;50.082;18.178;2023-07-13T04:23:48;98838.70;;;19.52;77.95
76337;BME280;65157;50.082;18.178;2023-07-13T04:26:15;98854.27;;;19.67;77.95
76337;BME280;65157;50.082;18.178;2023-07-13T04:28:41;98855.30;;;19.68;78.14
76337;BME280;65157;50.082;18.178;2023-07-13T04:31:08;98861.52;;;19.72;78.19
76337;BME280;65157;50.082;18.178;2023-07-13T04:33:34;98859.52;;;19.77;77.94
76337;BME280;65157;50.082;18.178;2023-07-13T04:36:01;98856.52;;;19.81;77.90
76337;BME280;65157;50.082;18.178;2023-07-13T04:38:28;98852.73;;;19.83;77.94
76337;BME280;65157;50.082;18.178;2023-07-13T04:40:59;98856.65;;;19.89;78.04
76337;BME280;65157;50.082;18.178;2023-07-13T04:43:27;98841.27;;;19.85;77.95
76337;BME280;65157;50.082;18.178;2023-07-13T04:45:54;98845.58;;;19.97;77.82
76337;BME280;65157;50.082;18.178;2023-07-13T04:48:22;98844.06;;;20.02;77.61
76337;BME280;65157;50.082;18.178;2023-07-13T04:50:55;98843.70;;;20.06;77.48
76337;BME280;65157;50.082;18.178;2023-07-13T04:53:22;98839.80;;;20.12;77.53
76337;BME280;65157;50.082;18.178;2023-07-13T04:55:49;98833.83;;;20.17;77.58
76337;BME280;65157;50.082;18.178;2023-07-13T04:58:16;98839.83;;;20.22;77.62
76337;BME280;65157;50.082;18.178;2023-07-13T05:00:42;98840.76;;;20.27;77.74
76337;BME280;65157;50.082;18.178;2023-07-13T05:03:09;98840.77;;;20.36;77.57
76337;BME280;65157;50.082;18.178;2023-07-13T05:05:36;98827.72;;;20.39;77.49
76337;BME280;65157;50.082;18.178;2023-07-13T05:08:03;98829.19;;;20.51;77.35
76337;BME280;65157;50.082;18.178;2023-07-13T05:10:29;98819.51;;;20.53;77.23
76337;BME280;65157;50.082;18.178;2023-07-13T05:12:56;98827.20;;;20.65;77.00
76337;BME280;65157;50.082;18.178;2023-07-13T05:15:23;98832.18;;;20.69;76.90
76337;BME280;65157;50.082;18.178;2023-07-13T05:17:49;98834.84;;;20.73;76.83
76337;BME280;65157;50.082;18.178;2023-07-13T05:20:17;98832.23;;;20.76;76.69
76337;BME280;65157;50.082;18.178;2023-07-13T05:22:45;98831.71;;;20.80;76.72
76337;BME280;65157;50.082;18.178;2023-07-13T05:25:12;98829.41;;;20.84;76.50
76337;BME280;65157;50.082;18.178;2023-07-13T05:27:39;98829.58;;;20.88;76.29
76337;BME280;65157;50.082;18.178;2023-07-13T05:30:06;98828.74;;;20.91;76.53
76337;BME280;65157;50.082;18.178;2023-07-13T05:32:33;98824.95;;;20.95;76.63
76337;BME280;65157;50.082;18.178;2023-07-13T05:34:59;98817.91;;;21.02;76.51
76337;BME280;65157;50.082;18.178;2023-07-13T05:37:26;98807.21;;;20.99;76.15
76337;BME280;65157;50.082;18.178;2023-07-13T05:39:52;98811.55;;;21.09;76.18
76337;BME280;65157;50.082;18.178;2023-07-13T05:42:18;98811.02;;;21.13;75.90
76337;BME280;65157;50.082;18.178;2023-07-13T05:44:45;98812.23;;;21.13;75.95
76337;BME280;65157;50.082;18.178;2023-07-13T05:47:11;98818.52;;;21.17;75.79
76337;BME280;65157;50.082;18.178;2023-07-13T05:49:38;98819.45;;;21.20;75.81
76337;BME280;65157;50.082;18.178;2023-07-13T05:52:05;98805.07;;;21.16;75.97
76337;BME280;65157;50.082;18.178;2023-07-13T05:54:31;98815.09;;;21.26;76.07
76337;BME280;65157;50.082;18.178;2023-07-13T05:56:58;98812.08;;;21.31;76.02
76337;BME280;65157;50.082;18.178;2023-07-13T05:59:24;98808.52;;;21.37;75.66
76337;BME280;65157;50.082;18.178;2023-07-13T06:01:51;98810.92;;;21.36;75.39
76337;BME280;65157;50.082;18.178;2023-07-13T06:04:18;98818.52;;;21.40;75.47
76337;BME280;65157;50.082;18.178;2023-07-13T06:06:45;98817.88;;;21.43;75.51
76337;BME280;65157;50.082;18.178;2023-07-13T06:09:12;98824.16;;;21.45;74.94
76337;BME280;65157;50.082;18.178;2023-07-13T06:11:38;98828.07;;;21.39;74.66
76337;BME280;65157;50.082;18.178;2023-07-13T06:14:04;98833.88;;;21.34;74.67
76337;BME280;65157;50.082;18.178;2023-07-13T06:16:31;98839.01;;;21.33;74.61
76337;BME280;65157;50.082;18.178;2023-07-13T06:18:57;98837.94;;;21.32;74.77
76337;BME280;65157;50.082;18.178;2023-07-13T06:21:24;98842.66;;;21.33;74.75
76337;BME280;65157;50.082;18.178;2023-07-13T06:23:50;98842.65;;;21.33;74.60
76337;BME280;65157;50.082;18.178;2023-07-13T06:26:20;98843.23;;;21.32;75.12
76337;BME280;65157;50.082;18.178;2023-07-13T06:28:46;98838.89;;;21.33;75.10
76337;BME280;65157;50.082;18.178;2023-07-13T06:31:14;98846.56;;;21.35;75.36
76337;BME280;65157;50.082;18.178;2023-07-13T06:33:41;98857.39;;;21.37;75.40
76337;BME280;65157;50.082;18.178;2023-07-13T06:36:08;98864.95;;;21.36;75.64
76337;BME280;65157;50.082;18.178;2023-07-13T06:38:35;98873.20;;;21.34;75.39
76337;BME280;65157;50.082;18.178;2023-07-13T06:41:04;98878.50;;;21.28;75.38
76337;BME280;65157;50.082;18.178;2023-07-13T06:43:30;98883.99;;;21.29;75.48
76337;BME280;65157;50.082;18.178;2023-07-13T06:45:57;98875.17;;;21.25;75.54
76337;BME280;65157;50.082;18.178;2023-07-13T06:48:23;98871.94;;;21.17;75.36
76337;BME280;65157;50.082;18.178;2023-07-13T06:50:50;98884.30;;;21.20;75.58
76337;BME280;65157;50.082;18.178;2023-07-13T06:53:18;98889.45;;;21.22;76.01
76337;BME280;65157;50.082;18.178;2023-07-13T06:55:45;98899.66;;;21.26;76.11
76337;BME280;65157;50.082;18.178;2023-07-13T06:58:12;98900.96;;;21.30;75.79
76337;BME280;65157;50.082;18.178;2023-07-13T07:00:39;98900.98;;;21.31;75.37
76337;BME280;65157;50.082;18.178;2023-07-13T07:03:06;98908.71;;;21.33;75.55
76337;BME280;65157;50.082;18.178;2023-07-13T07:05:33;98908.90;;;21.35;75.37
76337;BME280;65157;50.082;18.178;2023-07-13T07:08:00;98896.44;;;21.28;75.24
76337;BME280;65157;50.082;18.178;2023-07-13T07:10:29;98906.20;;;21.33;75.59
76337;BME280;65157;50.082;18.178;2023-07-13T07:12:56;98904.95;;;21.31;76.01
76337;BME280;65157;50.082;18.178;2023-07-13T07:15:23;98904.68;;;21.34;76.15
76337;BME280;65157;50.082;18.178;2023-07-13T07:17:49;98905.95;;;21.38;75.32
76337;BME280;65157;50.082;18.178;2023-07-13T07:20:16;98895.69;;;21.30;75.48
76337;BME280;65157;50.082;18.178;2023-07-13T07:22:42;98897.12;;;21.26;75.42
76337;BME280;65157;50.082;18.178;2023-07-13T07:25:11;98903.61;;;21.28;75.54
76337;BME280;65157;50.082;18.178;2023-07-13T07:27:38;98905.98;;;21.30;75.54
76337;BME280;65157;50.082;18.178;2023-07-13T07:30:07;98912.21;;;21.32;75.71
76337;BME280;65157;50.082;18.178;2023-07-13T07:32:33;98920.98;;;21.30;75.22
76337;BME280;65157;50.082;18.178;2023-07-13T07:35:00;98920.16;;;21.22;75.30
76337;BME280;65157;50.082;18.178;2023-07-13T07:37:27;98919.20;;;21.15;75.54
76337;BME280;65157;50.082;18.178;2023-07-13T07:39:53;98921.19;;;21.11;75.81
76337;BME280;65157;50.082;18.178;2023-07-13T07:42:20;98915.08;;;21.03;76.30
76337;BME280;65157;50.082;18.178;2023-07-13T07:44:47;98921.95;;;21.00;76.48
76337;BME280;65157;50.082;18.178;2023-07-13T07:47:13;98920.19;;;20.98;76.68
76337;BME280;65157;50.082;18.178;2023-07-13T07:49:39;98917.86;;;21.00;76.84
76337;BME280;65157;50.082;18.178;2023-07-13T07:52:07;98913.87;;;20.98;76.87
76337;BME280;65157;50.082;18.178;2023-07-13T07:54:33;98912.14;;;20.98;76.76
76337;BME280;65157;50.082;18.178;2023-07-13T07:57:00;98901.44;;;20.89;76.65
76337;BME280;65157;50.082;18.178;2023-07-13T07:59:26;98909.09;;;20.95;76.98
76337;BME280;65157;50.082;18.178;2023-07-13T08:01:53;98890.80;;;20.86;76.85
76337;BME280;65157;50.082;18.178;2023-07-13T08:04:19;98907.70;;;21.03;76.65
76337;BME280;65157;50.082;18.178;2023-07-13T08:06:46;98910.03;;;21.03;76.43
76337;BME280;65157;50.082;18.178;2023-07-13T08:09:14;98924.64;;;21.10;76.49
76337;BME280;65157;50.082;18.178;2023-07-13T08:11:41;98932.41;;;21.12;76.62
76337;BME280;65157;50.082;18.178;2023-07-13T08:14:08;98940.02;;;21.09;76.56
76337;BME280;65157;50.082;18.178;2023-07-13T08:16:34;98944.84;;;21.05;77.20
76337;BME280;65157;50.082;18.178;2023-07-13T08:19:01;98949.93;;;20.96;76.77
76337;BME280;65157;50.082;18.178;2023-07-13T08:21:27;98958.56;;;20.80;76.86
76337;BME280;65157;50.082;18.178;2023-07-13T08:23:54;98965.52;;;20.58;77.33
76337;BME280;65157;50.082;18.178;2023-07-13T08:26:21;98967.42;;;20.35;77.62
76337;BME280;65157;50.082;18.178;2023-07-13T08:28:48;98981.98;;;20.21;77.91
76337;BME280;65157;50.082;18.178;2023-07-13T08:31:14;98991.90;;;20.04;78.61
76337;BME280;65157;50.082;18.178;2023-07-13T08:33:41;98984.08;;;19.76;78.83
76337;BME280;65157;50.082;18.178;2023-07-13T08:36:07;98995.01;;;19.61;78.71
76337;BME280;65157;50.082;18.178;2023-07-13T08:38:35;98996.09;;;19.48;79.09
76337;BME280;65157;50.082;18.178;2023-07-13T08:41:17;98995.15;;;19.38;78.98
76337;BME280;65157;50.082;18.178;2023-07-13T08:43:54;98993.38;;;19.18;78.80
76337;BME280;65157;50.082;18.178;2023-07-13T08:46:30;98999.48;;;19.00;78.99
76337;BME280;65157;50.082;18.178;2023-07-13T08:49:03;98999.84;;;18.83;79.03
76337;BME280;65157;50.082;18.178;2023-07-13T08:51:50;99007.38;;;18.66;79.23
76337;BME280;65157;50.082;18.178;2023-07-13T08:54:29;99031.47;;;18.46;79.66
76337;BME280;65157;50.082;18.178;2023-07-13T08:57:01;99050.64;;;18.16;80.50
76337;BME280;65157;50.082;18.178;2023-07-13T08:59:31;99066.88;;;18.00;81.19
76337;BME280;65157;50.082;18.178;2023-07-13T09:10:21;99097.01;;;17.42;83.03
76337;BME280;65157;50.082;18.178;2023-07-13T09:15:48;99081.91;;;17.22;83.59
76337;BME280;65157;50.082;18.178;2023-07-13T09:18:18;99082.81;;;17.17;83.38
76337;BME280;65157;50.082;18.178;2023-07-13T09:20:58;99079.88;;;17.18;83.47
76337;BME280;65157;50.082;18.178;2023-07-13T09:23:28;99064.83;;;17.09;83.30
76337;BME280;65157;50.082;18.178;2023-07-13T09:26:04;99073.95;;;17.23;83.21
76337;BME280;65157;50.082;18.178;2023-07-13T09:28:40;99068.10;;;17.30;82.97
76337;BME280;65157;50.082;18.178;2023-07-13T09:31:14;99072.83;;;17.38;82.61
76337;BME280;65157;50.082;18.178;2023-07-13T09:33:41;99084.48;;;17.40;82.88
76337;BME280;65157;50.082;18.178;2023-07-13T09:36:29;99091.87;;;17.34;82.86
76337;BME280;65157;50.082;18.178;2023-07-13T09:41:51;99090.98;;;17.20;83.06
76337;BME280;65157;50.082;18.178;2023-07-13T09:44:50;99088.01;;;17.16;82.97
76337;BME280;65157;50.082;18.178;2023-07-13T09:47:22;99084.40;;;17.22;82.95
76337;BME280;65157;50.082;18.178;2023-07-13T09:50:05;99071.04;;;17.24;82.80
76337;BME280;65157;50.082;18.178;2023-07-13T09:52:44;99083.75;;;17.35;82.68
76337;BME280;65157;50.082;18.178;2023-07-13T09:57:54;99089.98;;;17.45;82.71
76337;BME280;65157;50.082;18.178;2023-07-13T10:00:29;99076.59;;;17.43;82.61
76337;BME280;65157;50.082;18.178;2023-07-13T10:03:05;99075.73;;;17.55;82.71
76337;BME280;65157;50.082;18.178;2023-07-13T10:05:44;99065.39;;;17.65;82.99
76337;BME280;65157;50.082;18.178;2023-07-13T10:10:54;99061.85;;;17.83;82.77
76337;BME280;65157;50.082;18.178;2023-07-13T10:13:29;99060.83;;;17.90;82.46
76337;BME280;65157;50.082;18.178;2023-07-13T10:15:58;99061.58;;;17.98;82.22
76337;BME280;65157;50.082;18.178;2023-07-13T10:18:26;99062.03;;;18.05;82.05
76337;BME280;65157;50.082;18.178;2023-07-13T10:21:00;99063.41;;;18.12;81.96
76337;BME280;65157;50.082;18.178;2023-07-13T10:23:35;99062.48;;;18.20;81.91
76337;BME280;65157;50.082;18.178;2023-07-13T10:26:05;99071.98;;;18.31;81.96
76337;BME280;65157;50.082;18.178;2023-07-13T10:28:37;99079.52;;;18.42;82.07
76337;BME280;65157;50.082;18.178;2023-07-13T10:31:10;99079.84;;;18.52;81.86
76337;BME280;65157;50.082;18.178;2023-07-13T10:33:38;99083.15;;;18.65;81.72
76337;BME280;65157;50.082;18.178;2023-07-13T10:36:34;99086.98;;;18.75;81.86
76337;BME280;65157;50.082;18.178;2023-07-13T10:39:05;99090.98;;;18.86;81.83
76337;BME280;65157;50.082;18.178;2023-07-13T10:41:38;99087.42;;;18.92;81.11
76337;BME280;65157;50.082;18.178;2023-07-13T10:44:13;99092.29;;;19.05;81.39
76337;BME280;65157;50.082;18.178;2023-07-13T10:46:43;99092.06;;;19.16;81.04
76337;BME280;65157;50.082;18.178;2023-07-13T10:49:10;99093.70;;;19.27;80.72
76337;BME280;65157;50.082;18.178;2023-07-13T10:51:39;99089.91;;;19.35;81.03
76337;BME280;65157;50.082;18.178;2023-07-13T10:56:44;99099.35;;;19.66;80.75
76337;BME280;65157;50.082;18.178;2023-07-13T10:59:27;99108.42;;;19.76;80.01
76337;BME280;65157;50.082;18.178;2023-07-13T11:04:40;99115.41;;;19.99;79.93
76337;BME280;65157;50.082;18.178;2023-07-13T11:07:19;99114.51;;;20.10;79.42
76337;BME280;65157;50.082;18.178;2023-07-13T11:10:30;99119.66;;;20.17;79.15
76337;BME280;65157;50.082;18.178;2023-07-13T11:12:53;99116.42;;;20.23;79.20
76337;BME280;65157;50.082;18.178;2023-07-13T11:15:52;99096.73;;;20.15;78.79
76337;BME280;65157;50.082;18.178;2023-07-13T11:18:22;99112.98;;;20.26;78.51
76337;BME280;65157;50.082;18.178;2023-07-13T11:20:49;99120.11;;;20.22;77.63
76337;BME280;65157;50.082;18.178;2023-07-13T11:23:17;99121.48;;;20.18;77.61
76337;BME280;65157;50.082;18.178;2023-07-13T11:25:45;99124.39;;;20.14;77.47
76337;BME280;65157;50.082;18.178;2023-07-13T11:28:18;99128.06;;;20.13;77.21
76337;BME280;65157;50.082;18.178;2023-07-13T11:38:42;99133.82;;;20.10;77.19
76337;BME280;65157;50.082;18.178;2023-07-13T11:41:17;99130.52;;;20.07;77.45
76337;BME280;65157;50.082;18.178;2023-07-13T11:43:45;99121.41;;;20.09;77.83
76337;BME280;65157;50.082;18.178;2023-07-13T11:46:27;99128.01;;;20.24;78.23
76337;BME280;65157;50.082;18.178;2023-07-13T11:48:54;99130.36;;;20.35;78.28
76337;BME280;65157;50.082;18.178;2023-07-13T11:51:29;99135.02;;;20.44;78.22
76337;BME280;65157;50.082;18.178;2023-07-13T11:54:01;99128.21;;;20.43;77.77
76337;BME280;65157;50.082;18.178;2023-07-13T11:56:30;99148.33;;;20.61;77.72
76337;BME280;65157;50.082;18.178;2023-07-13T11:58:56;99156.23;;;20.68;77.20
76337;BME280;65157;50.082;18.178;2023-07-13T12:01:26;99147.35;;;20.65;76.45
76337;BME280;65157;50.082;18.178;2023-07-13T12:03:53;99152.95;;;20.70;75.69
76337;BME280;65157;50.082;18.178;2023-07-13T12:06:35;99155.29;;;20.74;76.84
76337;BME280;65157;50.082;18.178;2023-07-13T12:09:11;99138.30;;;20.76;76.68
76337;BME280;65157;50.082;18.178;2023-07-13T12:11:40;99145.52;;;20.88;75.48
76337;BME280;65157;50.082;18.178;2023-07-13T12:14:17;99147.00;;;20.94;75.65
76337;BME280;65157;50.082;18.178;2023-07-13T12:16:46;99147.68;;;20.94;74.93
76337;BME280;65157;50.082;18.178;2023-07-13T12:19:25;99150.68;;;20.93;75.14
76337;BME280;65157;50.082;18.178;2023-07-13T12:21:57;99147.75;;;21.00;76.03
76337;BME280;65157;50.082;18.178;2023-07-13T12:24:26;99145.15;;;21.05;75.83
76337;BME280;65157;50.082;18.178;2023-07-13T12:27:02;99148.00;;;21.03;74.67
76337;BME280;65157;50.082;18.178;2023-07-13T12:29:30;99149.73;;;20.95;74.85
76337;BME280;65157;50.082;18.178;2023-07-13T12:32:09;99153.59;;;20.96;75.12
76337;BME280;65157;50.082;18.178;2023-07-13T12:34:51;99149.36;;;20.98;74.58
76337;BME280;65157;50.082;18.178;2023-07-13T12:37:18;99143.27;;;21.02;74.52
76337;BME280;65157;50.082;18.178;2023-07-13T12:39:47;99139.39;;;21.07;75.36
76337;BME280;65157;50.082;18.178;2023-07-13T12:42:24;99122.41;;;21.00;75.10
76337;BME280;65157;50.082;18.178;2023-07-13T12:45:11;99137.38;;;21.11;75.04
76337;BME280;65157;50.082;18.178;2023-07-13T12:47:42;99140.61;;;21.24;75.54
76337;BME280;65157;50.082;18.178;2023-07-13T12:50:22;99140.79;;;21.32;75.07
76337;BME280;65157;50.082;18.178;2023-07-13T12:52:52;99138.91;;;21.37;74.89
76337;BME280;65157;50.082;18.178;2023-07-13T12:55:21;99141.14;;;21.43;73.60
76337;BME280;65157;50.082;18.178;2023-07-13T12:57:55;99136.09;;;21.47;73.48
76337;BME280;65157;50.082;18.178;2023-07-13T13:00:31;99140.61;;;21.52;73.09
76337;BME280;65157;50.082;18.178;2023-07-13T13:03:05;99137.56;;;21.58;72.87
76337;BME280;65157;50.082;18.178;2023-07-13T13:05:33;99136.66;;;21.62;71.98
76337;BME280;65157;50.082;18.178;2023-07-13T13:08:01;99142.39;;;21.66;72.54
76337;BME280;65157;50.082;18.178;2023-07-13T13:10:28;99139.23;;;21.64;71.13
76337;BME280;65157;50.082;18.178;2023-07-13T13:12:54;99137.20;;;21.54;70.81
76337;BME280;65157;50.082;18.178;2023-07-13T13:15:21;99144.04;;;21.52;71.42
76337;BME280;65157;50.082;18.178;2023-07-13T13:17:47;99149.77;;;21.57;72.01
76337;BME280;65157;50.082;18.178;2023-07-13T13:20:15;99147.38;;;21.69;72.56
76337;BME280;65157;50.082;18.178;2023-07-13T13:22:42;99148.88;;;21.88;72.34
76337;BME280;65157;50.082;18.178;2023-07-13T13:25:13;99145.65;;;22.08;71.56
76337;BME280;65157;50.082;18.178;2023-07-13T13:27:44;99143.67;;;22.27;71.31
76337;BME280;65157;50.082;18.178;2023-07-13T13:30:16;99126.79;;;22.29;71.30
76337;BME280;65157;50.082;18.178;2023-07-13T13:32:48;99138.21;;;22.45;70.86
76337;BME280;65157;50.082;18.178;2023-07-13T13:35:16;99129.42;;;22.45;70.87